createdAt,value
2022-11-16T00:00:36.075Z,96886.72
2022-11-16T00:03:38.536Z,96885.09
2022-11-16T00:06:41.725Z,96877.22
2022-11-16T00:09:43.730Z,96868.63
2022-11-16T00:12:45.860Z,96859.09
2022-11-16T00:15:56.058Z,96854.69
2022-11-16T00:19:00.507Z,96853.03
2022-11-16T00:22:02.583Z,96852.06
2022-11-16T00:25:05.049Z,96857.44
2022-11-16T00:28:07.069Z,96848.84
2022-11-16T00:31:10.019Z,96845.38
2022-11-16T00:34:12.362Z,96842.03
2022-11-16T00:37:14.345Z,96846.34
2022-11-16T00:40:16.529Z,96855.03
2022-11-16T00:43:18.740Z,96863.72
2022-11-16T00:46:21.193Z,96861.09
2022-11-16T00:49:23.341Z,96859.22
2022-11-16T00:52:25.388Z,96852.19
2022-11-16T00:55:28.011Z,96850.50
2022-11-16T00:58:31.330Z,96860.03
2022-11-16T01:01:39.628Z,96859.94
2022-11-16T01:04:42.307Z,96848.63
2022-11-16T01:07:44.426Z,96847.78
2022-11-16T01:10:46.548Z,96853.84
2022-11-16T01:13:49.563Z,96846.00
2022-11-16T01:16:51.700Z,96838.13
2022-11-16T01:19:55.718Z,96843.50
2022-11-16T01:22:57.835Z,96846.09
2022-11-16T01:26:03.108Z,96835.50
2022-11-16T01:29:09.286Z,96832.06
2022-11-16T01:32:15.707Z,96825.97
2022-11-16T01:35:19.300Z,96832.06
2022-11-16T01:38:25.925Z,96819.78
2022-11-16T01:41:30.954Z,96807.50
2022-11-16T01:44:35.750Z,96809.31
2022-11-16T01:47:47.600Z,96799.78
2022-11-16T01:50:55.926Z,96790.13
2022-11-16T01:54:02.866Z,96782.25
2022-11-16T01:57:10.200Z,96776.28
2022-11-16T02:00:20.830Z,96777.13
2022-11-16T02:03:33.336Z,96776.19
2022-11-16T02:06:52.588Z,96770.94
2022-11-16T02:10:13.858Z,96761.28
2022-11-16T02:13:29.510Z,96764.16
2022-11-16T02:16:39.588Z,96758.06
2022-11-16T02:20:00.576Z,96748.53
2022-11-16T02:23:05.661Z,96747.69
2022-11-16T02:26:42.895Z,96724.94
2022-11-16T02:29:54.810Z,96717.91
2022-11-16T02:33:12.297Z,96711.00
2022-11-16T02:36:20.897Z,96713.78
2022-11-16T02:39:27.446Z,96711.16
2022-11-16T02:42:51.654Z,96709.34
2022-11-16T02:45:57.277Z,96708.53
2022-11-16T02:49:07.369Z,96704.09
2022-11-16T02:52:11.170Z,96703.16
2022-11-16T02:55:13.965Z,96706.50
2022-11-16T02:58:23.424Z,96700.41
2022-11-16T03:01:35.189Z,96702.09
2022-11-16T03:04:45.654Z,96701.97
2022-11-16T03:08:00.690Z,96701.00
2022-11-16T03:11:27.243Z,96698.28
2022-11-16T03:14:46.487Z,96700.91
2022-11-16T03:17:50.664Z,96705.03
2022-11-16T03:21:04.224Z,96699.69
2022-11-16T03:24:07.881Z,96702.19
2022-11-16T03:27:30.418Z,96700.28
2022-11-16T03:30:40.219Z,96688.97
2022-11-16T03:33:49.563Z,96685.38
2022-11-16T03:36:55.286Z,96681.09
2022-11-16T03:40:01.218Z,96686.22
2022-11-16T03:43:08.349Z,96683.72
2022-11-16T03:46:11.134Z,96679.31
2022-11-16T03:49:14.619Z,96673.94
2022-11-16T03:52:18.370Z,96657.38
2022-11-16T03:55:21.980Z,96654.78
2022-11-16T03:58:24.233Z,96651.19
2022-11-16T04:01:28.310Z,96651.19
2022-11-16T04:04:49.012Z,96643.44
2022-11-16T04:08:09.504Z,96640.94
2022-11-16T04:11:32.894Z,96631.53
2022-11-16T04:15:10.794Z,96630.59
2022-11-16T04:18:32.646Z,96629.75
2022-11-16T04:21:57.932Z,96630.59
2022-11-16T04:25:27.480Z,96620.09
2022-11-16T04:28:33.978Z,96620.09
2022-11-16T04:31:57.045Z,96620.09
2022-11-16T04:35:18.399Z,96620.81
2022-11-16T04:38:21.410Z,96622.59
2022-11-16T04:41:42.403Z,96618.06
2022-11-16T04:45:03.120Z,96616.41
2022-11-16T04:48:17.800Z,96621.53
2022-11-16T04:51:20.246Z,96616.41
2022-11-16T04:54:22.310Z,96613.78
2022-11-16T04:57:24.619Z,96604.25
2022-11-16T05:00:27.643Z,96607.94
2022-11-16T05:03:30.965Z,96602.72
2022-11-16T05:06:33.085Z,96596.63
2022-11-16T05:09:35.213Z,96603.66
2022-11-16T05:12:37.520Z,96606.44
2022-11-16T05:15:45.680Z,96606.56
2022-11-16T05:19:11.239Z,96607.38
2022-11-16T05:22:14.246Z,96606.44
2022-11-16T05:25:16.298Z,96616.91
2022-11-16T05:28:18.406Z,96614.28
2022-11-16T05:31:20.734Z,96615.13
2022-11-16T05:34:23.759Z,96613.47
2022-11-16T05:37:27.013Z,96598.69
2022-11-16T05:40:29.117Z,96596.78
2022-11-16T05:43:33.683Z,96580.47
2022-11-16T05:46:48.570Z,96585.00
2022-11-16T05:49:52.591Z,96583.31
2022-11-16T05:52:54.699Z,96585.00
2022-11-16T05:55:56.785Z,96583.19
2022-11-16T05:58:59.935Z,96580.47
2022-11-16T06:02:04.040Z,96578.78
2022-11-16T06:05:08.289Z,96578.78
2022-11-16T06:08:10.724Z,96577.97
2022-11-16T06:11:13.387Z,96581.28
2022-11-16T06:14:15.535Z,96579.50
2022-11-16T06:17:17.665Z,96579.50
2022-11-16T06:20:21.005Z,96590.94
2022-11-16T06:23:23.134Z,96597.84
2022-11-16T06:26:26.798Z,96601.31
2022-11-16T06:29:29.138Z,96594.28
2022-11-16T06:32:31.305Z,96588.09
2022-11-16T06:35:33.605Z,96585.31
2022-11-16T06:38:36.691Z,96582.69
2022-11-16T06:41:41.498Z,96575.66
2022-11-16T06:44:46.169Z,96570.56
2022-11-16T06:47:51.127Z,96564.50
2022-11-16T06:50:54.053Z,96561.16
2022-11-16T06:53:57.142Z,96559.63
2022-11-16T06:56:59.520Z,96564.03
2022-11-16T07:00:03.533Z,96557.00
2022-11-16T07:03:06.966Z,96551.50
2022-11-16T07:06:11.317Z,96548.78
2022-11-16T07:09:15.676Z,96554.69
2022-11-16T07:12:18.597Z,96560.09
2022-11-16T07:15:20.879Z,96553.63
2022-11-16T07:18:23.422Z,96552.53
2022-11-16T07:21:26.362Z,96550.63
2022-11-16T07:24:30.379Z,96548.00
2022-11-16T07:27:32.610Z,96553.25
2022-11-16T07:30:34.878Z,96556.72
2022-11-16T07:33:46.561Z,96549.53
2022-11-16T07:37:07.417Z,96554.66
2022-11-16T07:40:09.912Z,96554.41
2022-11-16T07:43:13.865Z,96559.78
2022-11-16T07:46:47.642Z,96557.97
2022-11-16T07:49:51.682Z,96553.56
2022-11-16T07:52:56.884Z,96562.03
2022-11-16T07:55:59.055Z,96563.53
2022-11-16T07:59:03.210Z,96557.22
2022-11-16T08:02:11.271Z,96564.72
2022-11-16T08:05:15.818Z,96564.31
2022-11-16T08:08:17.930Z,96560.97
2022-11-16T08:11:20.566Z,96549.53
2022-11-16T08:14:22.963Z,96548.72
2022-11-16T08:17:26.582Z,96554.78
2022-11-16T08:20:29.419Z,96556.22
2022-11-16T08:23:32.617Z,96554.00
2022-11-16T08:26:34.881Z,96550.91
2022-11-16T08:29:42.389Z,96548.84
2022-11-16T08:32:45.866Z,96546.91
2022-11-16T08:35:49.505Z,96555.75
2022-11-16T08:38:52.938Z,96554.78
2022-11-16T08:41:57.794Z,96557.41
2022-11-16T08:44:59.903Z,96561.81
2022-11-16T08:48:04.925Z,96564.19
2022-11-16T08:51:19.281Z,96565.63
2022-11-16T08:54:31.179Z,96571.03
2022-11-16T08:57:33.463Z,96582.25
2022-11-16T09:00:39.981Z,96582.81
2022-11-16T09:03:42.517Z,96575.88
2022-11-16T09:06:46.003Z,96583.88
2022-11-16T09:09:48.093Z,96581.25
2022-11-16T09:12:50.561Z,96584.88
2022-11-16T09:15:57.711Z,96582.09
2022-11-16T09:18:59.789Z,96584.09
2022-11-16T09:22:01.821Z,96581.78
2022-11-16T09:25:04.237Z,96586.06
2022-11-16T09:28:06.363Z,96584.81
2022-11-16T09:31:10.422Z,96581.94
2022-11-16T09:34:12.522Z,96578.34
2022-11-16T09:37:15.593Z,96574.53
2022-11-16T09:40:17.801Z,96588.91
2022-11-16T09:43:44.018Z,96593.78
2022-11-16T09:46:52.957Z,96593.63
2022-11-16T09:50:02.951Z,96593.63
2022-11-16T09:53:34.097Z,96590.03
2022-11-16T09:56:41.371Z,96603.03
2022-11-16T09:59:48.788Z,96595.88
2022-11-16T10:03:12.241Z,96586.91
2022-11-16T10:06:22.885Z,96577.94
2022-11-16T10:09:26.012Z,96569.63
2022-11-16T10:12:37.764Z,96577.25
2022-11-16T10:15:54.761Z,96574.63
2022-11-16T10:19:06.148Z,96568.13
2022-11-16T10:22:19.997Z,96568.13
2022-11-16T10:25:32.121Z,96565.81
2022-11-16T10:28:55.684Z,96565.09
2022-11-16T10:32:28.255Z,96562.72
2022-11-16T10:35:40.776Z,96558.44
2022-11-16T10:38:44.587Z,96557.59
2022-11-16T10:41:53.500Z,96550.44
2022-11-16T10:45:15.007Z,96556.78
2022-11-16T10:48:28.766Z,96559.09
2022-11-16T10:51:30.776Z,96556.84
2022-11-16T10:54:32.850Z,96546.53
2022-11-16T10:57:55.746Z,96545.81
2022-11-16T11:00:59.318Z,96546.19
2022-11-16T11:04:20.919Z,96547.59
2022-11-16T11:07:46.029Z,96547.91
2022-11-16T11:10:58.749Z,96542.25
2022-11-16T11:14:09.337Z,96544.47
2022-11-16T11:17:18.086Z,96547.53
2022-11-16T11:20:24.284Z,96533.88
2022-11-16T11:23:28.116Z,96540.78
2022-11-16T11:26:37.258Z,96541.75
2022-11-16T11:29:43.454Z,96542.72
2022-11-16T11:32:46.707Z,96536.91
2022-11-16T11:36:07.730Z,96537.28
2022-11-16T11:39:12.738Z,96535.75
2022-11-16T11:42:18.804Z,96537.72
2022-11-16T11:45:26.066Z,96532.00
2022-11-16T11:48:47.981Z,96537.53
2022-11-16T11:51:51.504Z,96541.47
2022-11-16T11:54:56.364Z,96542.78
2022-11-16T11:58:01.808Z,96536.66
2022-11-16T12:01:06.877Z,96536.75
2022-11-16T12:04:17.829Z,96545.25
2022-11-16T12:07:38.083Z,96543.16
2022-11-16T12:10:43.054Z,96546.72
2022-11-16T12:14:04.920Z,96547.09
2022-11-16T12:17:51.774Z,96542.69
2022-11-16T12:20:56.760Z,96532.91
2022-11-16T12:24:39.459Z,96536.38
2022-11-16T12:28:00.383Z,96534.56
2022-11-16T12:31:24.043Z,96523.13
2022-11-16T12:34:47.592Z,96527.66
2022-11-16T12:37:59.953Z,96525.03
2022-11-16T12:41:11.998Z,96522.41
2022-11-16T12:44:57.965Z,96519.44
2022-11-16T12:48:38.479Z,96517.34
2022-11-16T12:51:46.295Z,96525.69
2022-11-16T12:58:30.646Z,96515.13
2022-11-16T13:01:52.499Z,96511.00
2022-11-16T13:05:31.191Z,96510.19
2022-11-16T13:08:40.752Z,96501.84
2022-11-16T13:12:04.741Z,96499.06
2022-11-16T13:15:19.337Z,96487.94
2022-11-16T13:18:23.309Z,96489.22
2022-11-16T13:21:47.285Z,96476.09
2022-11-16T13:24:59.171Z,96483.03
2022-11-16T13:28:14.923Z,96472.38
2022-11-16T13:31:27.625Z,96470.59
2022-11-16T13:34:33.884Z,96467.00
2022-11-16T13:37:39.040Z,96467.81
2022-11-16T13:40:41.526Z,96470.97
2022-11-16T13:43:49.658Z,96471.41
2022-11-16T13:46:57.192Z,96472.22
2022-11-16T13:50:06.084Z,96469.16
2022-11-16T13:56:51.773Z,96459.31
2022-11-16T14:00:22.891Z,96458.47
2022-11-16T14:03:29.000Z,96464.94
2022-11-16T14:06:30.950Z,96460.94
2022-11-16T14:09:48.306Z,96469.63
2022-11-16T14:12:57.152Z,96466.41
2022-11-16T14:16:17.902Z,96466.69
2022-11-16T14:19:44.808Z,96466.69
2022-11-16T14:22:55.813Z,96463.63
2022-11-16T14:26:31.220Z,96459.22
2022-11-16T14:29:45.942Z,96455.88
2022-11-16T14:32:52.540Z,96460.56
2022-11-16T14:35:54.822Z,96459.06
2022-11-16T14:39:32.729Z,96452.97
2022-11-16T14:46:28.247Z,96443.94
2022-11-16T14:49:33.699Z,96442.56
2022-11-16T14:52:39.750Z,96444.91
2022-11-16T14:55:43.827Z,96445.69
2022-11-16T14:58:54.186Z,96435.75
2022-11-16T15:01:57.179Z,96444.44
2022-11-16T15:04:59.330Z,96436.72
2022-11-16T15:08:03.916Z,96435.16
2022-11-16T15:11:10.574Z,96433.66
2022-11-16T15:14:17.499Z,96432.25
2022-11-16T15:17:22.591Z,96431.66
2022-11-16T15:20:26.531Z,96431.13
2022-11-16T15:23:30.797Z,96422.56
2022-11-16T15:26:33.121Z,96422.13
2022-11-16T15:29:35.804Z,96423.22
2022-11-16T15:32:41.980Z,96428.00
2022-11-16T15:35:44.146Z,96414.34
2022-11-16T15:38:46.312Z,96418.03
2022-11-16T15:41:48.843Z,96423.53
2022-11-16T15:44:52.518Z,96410.44
2022-11-16T15:47:56.940Z,96410.56
2022-11-16T15:51:08.524Z,96404.63
2022-11-16T15:54:30.917Z,96404.63
2022-11-16T15:57:33.016Z,96403.22
2022-11-16T16:00:37.507Z,96407.03
2022-11-16T16:03:46.338Z,96411.59
2022-11-16T16:06:58.597Z,96415.06
2022-11-16T16:10:19.015Z,96410.78
2022-11-16T16:13:30.079Z,96412.69
2022-11-16T16:16:40.219Z,96410.19
2022-11-16T16:19:47.683Z,96415.06
2022-11-16T16:22:50.325Z,96417.41
2022-11-16T16:25:52.562Z,96417.41
2022-11-16T16:28:54.886Z,96410.50
2022-11-16T16:31:57.248Z,96408.59
2022-11-16T16:35:07.455Z,96405.84
2022-11-16T16:38:14.680Z,96402.84
2022-11-16T16:41:24.362Z,96402.84
2022-11-16T16:44:27.008Z,96407.25
2022-11-16T16:47:29.163Z,96405.31
2022-11-16T16:50:31.698Z,96399.22
2022-11-16T16:53:34.250Z,96406.97
2022-11-16T16:56:36.685Z,96402.06
2022-11-16T16:59:39.277Z,96402.38
2022-11-16T17:02:41.408Z,96403.50
2022-11-16T17:05:44.032Z,96406.56
2022-11-16T17:08:46.568Z,96411.41
2022-11-16T17:11:48.820Z,96412.09
2022-11-16T17:14:56.815Z,96415.31
2022-11-16T17:18:00.148Z,96415.97
2022-11-16T17:21:08.081Z,96415.84
2022-11-16T17:24:10.884Z,96406.91
2022-11-16T17:27:13.745Z,96405.13
2022-11-16T17:30:16.820Z,96413.81
2022-11-16T17:33:19.769Z,96409.53
2022-11-16T17:36:23.970Z,96415.72
2022-11-16T17:39:26.525Z,96411.72
2022-11-16T17:42:28.989Z,96413.66
2022-11-16T17:45:32.632Z,96411.97
2022-11-16T17:48:36.191Z,96405.06
2022-11-16T17:51:38.857Z,96410.56
2022-11-16T17:54:42.812Z,96409.75
2022-11-16T17:57:45.494Z,96407.81
2022-11-16T18:00:51.815Z,96408.41
2022-11-16T18:03:54.461Z,96411.03
2022-11-16T18:06:57.500Z,96411.03
2022-11-16T18:13:17.327Z,96405.06
2022-11-16T18:16:25.620Z,96411.28
2022-11-16T18:19:28.720Z,96406.16
2022-11-16T18:22:31.647Z,96408.78
2022-11-16T18:25:37.568Z,96414.84
2022-11-16T18:28:41.547Z,96413.06
2022-11-16T18:31:45.641Z,96420.94
2022-11-16T18:34:48.488Z,96418.31
2022-11-16T18:37:51.719Z,96415.69
2022-11-16T18:41:13.143Z,96407.81
2022-11-16T18:44:16.358Z,96410.69
2022-11-16T18:47:19.803Z,96401.31
2022-11-16T18:50:26.823Z,96406.44
2022-11-16T18:53:32.316Z,96411.81
2022-11-16T18:56:36.816Z,96407.41
2022-11-16T18:59:39.986Z,96409.19
2022-11-16T19:02:43.015Z,96410.97
2022-11-16T19:05:49.197Z,96405.75
2022-11-16T19:08:59.722Z,96404.06
2022-11-16T19:12:02.944Z,96406.25
2022-11-16T19:15:06.179Z,96406.41
2022-11-16T19:18:21.526Z,96403.91
2022-11-16T19:21:25.007Z,96402.38
2022-11-16T19:24:28.020Z,96403.44
2022-11-16T19:27:32.598Z,96395.03
2022-11-16T19:30:35.736Z,96402.06
2022-11-16T19:33:39.260Z,96404.69
2022-11-16T19:36:44.804Z,96401.78
2022-11-16T19:39:47.936Z,96397.38
2022-11-16T19:42:53.111Z,96407.59
2022-11-16T19:46:07.592Z,96405.69
2022-11-16T19:49:19.588Z,96401.41
2022-11-16T19:52:23.005Z,96395.19
2022-11-16T19:55:26.082Z,96392.31
2022-11-16T19:58:29.645Z,96391.34
2022-11-16T20:01:33.372Z,96394.78
2022-11-16T20:04:37.296Z,96392.19
2022-11-16T20:07:43.244Z,96386.22
2022-11-16T20:10:45.889Z,96394.25
2022-11-16T20:13:50.972Z,96387.22
2022-11-16T20:16:54.522Z,96376.84
2022-11-16T20:19:57.563Z,96370.91
2022-11-16T20:23:00.124Z,96365.78
2022-11-16T20:26:10.861Z,96360.53
2022-11-16T20:29:15.406Z,96357.94
2022-11-16T20:32:18.542Z,96354.72
2022-11-16T20:35:21.613Z,96363.97
2022-11-16T20:38:24.227Z,96358.13
2022-11-16T20:41:30.988Z,96358.13
2022-11-16T20:44:34.117Z,96367.41
2022-11-16T20:47:39.122Z,96369.78
2022-11-16T20:50:41.525Z,96365.75
2022-11-16T20:53:45.338Z,96360.97
2022-11-16T20:56:50.134Z,96355.56
2022-11-16T20:59:52.758Z,96355.44
2022-11-16T21:02:55.567Z,96344.00
2022-11-16T21:05:58.634Z,96352.56
2022-11-16T21:09:01.608Z,96355.31
2022-11-16T21:12:22.446Z,96352.25
2022-11-16T21:15:24.635Z,96346.44
2022-11-16T21:18:30.753Z,96347.53
2022-11-16T21:21:33.629Z,96340.91
2022-11-16T21:24:35.683Z,96342.81
2022-11-16T21:27:37.826Z,96342.00
2022-11-16T21:30:39.894Z,96337.56
2022-11-16T21:33:42.816Z,96336.63
2022-11-16T21:36:44.883Z,96346.41
2022-11-16T21:39:46.965Z,96341.84
2022-11-16T21:42:51.021Z,96341.56
2022-11-16T21:45:53.133Z,96337.16
2022-11-16T21:48:56.890Z,96333.59
2022-11-16T21:51:59.121Z,96336.22
2022-11-16T21:55:01.185Z,96334.41
2022-11-16T21:58:03.810Z,96330.13
2022-11-16T22:01:06.350Z,96335.25
2022-11-16T22:04:26.850Z,96338.69
2022-11-16T22:07:36.939Z,96335.25
2022-11-16T22:10:39.123Z,96330.00
2022-11-16T22:13:41.325Z,96331.69
2022-11-16T22:16:43.475Z,96322.84
2022-11-16T22:19:45.488Z,96314.72
2022-11-16T22:22:48.450Z,96321.22
2022-11-16T22:25:50.688Z,96316.81
2022-11-16T22:28:53.369Z,96320.97
2022-11-16T22:31:55.630Z,96329.78
2022-11-16T22:34:57.671Z,96332.66
2022-11-16T22:37:59.904Z,96336.00
2022-11-16T22:41:01.987Z,96331.34
2022-11-16T22:44:04.145Z,96328.28
2022-11-16T22:47:06.243Z,96331.50
2022-11-16T22:50:08.499Z,96332.19
2022-11-16T22:53:10.754Z,96329.41
2022-11-16T22:56:13.087Z,96331.06
2022-11-16T22:59:15.208Z,96331.66
2022-11-16T23:02:17.280Z,96339.38
2022-11-16T23:05:19.288Z,96339.25
2022-11-16T23:08:25.096Z,96334.97
2022-11-16T23:11:46.011Z,96333.06
2022-11-16T23:15:06.641Z,96333.88
2022-11-16T23:18:08.648Z,96319.94
2022-11-16T23:21:29.150Z,96324.50
2022-11-16T23:24:49.709Z,96319.13
2022-11-16T23:28:14.548Z,96325.19
2022-11-16T23:31:16.524Z,96324.34
2022-11-16T23:34:20.232Z,96332.91
2022-11-16T23:37:22.631Z,96336.09
2022-11-16T23:40:30.158Z,96344.66
2022-11-16T23:43:50.936Z,96339.41
2022-11-16T23:46:52.980Z,96343.56
2022-11-16T23:49:55.009Z,96344.41
2022-11-16T23:52:57.062Z,96340.13
2022-11-16T23:56:06.069Z,96342.75
2022-11-16T23:59:08.392Z,96345.91
